Time;durP1;ratioP1;P1;durP2;ratioP2;P2;SDS_P1;SDS_P2;PMS_P1;PMS_P2;Temp;Humidity;BMP_temperature;BMP_pressure;BME280_temperature;BME280_humidity;BME280_pressure;Samples;Min_cycle;Max_cycle;Signal;HPM_P1;HPM_P2
2022/04/08 00:02:27;;;;;;;0.68;0.40;;;11.90;75.50;;;8.00;90.36;94326.66;5032946;28;20043;-61
2022/04/08 00:04:53;;;;;;;0.20;0.20;;;11.90;75.60;;;8.06;90.59;94328.19;5013794;28;20029;-60
2022/04/08 00:07:19;;;;;;;0.40;0.40;;;11.90;75.70;;;8.06;90.48;94326.34;5032493;28;20033;-60
2022/04/08 00:09:47;;;;;;;1.63;0.50;;;11.90;75.70;;;8.07;90.46;94327.13;5014336;28;20562;-59
2022/04/08 00:12:13;;;;;;;0.65;0.40;;;11.90;75.90;;;8.10;90.51;94335.31;5032936;28;20035;-58
2022/04/08 00:14:41;;;;;;;0.80;0.50;;;12.00;76.10;;;8.10;90.21;94323.91;5032744;28;20502;-57
2022/04/08 00:17:07;;;;;;;1.48;0.50;;;12.00;76.20;;;8.12;90.07;94340.34;5022521;28;20435;-60
2022/04/08 00:19:36;;;;;;;0.40;0.40;;;12.00;76.20;;;8.15;89.98;94333.66;5030909;28;20026;-60
2022/04/08 00:22:05;;;;;;;1.13;0.30;;;12.00;76.20;;;8.17;89.83;94337.63;5008982;28;20018;-60
2022/04/08 00:24:32;;;;;;;0.57;0.43;;;12.00;76.20;;;8.20;90.13;94337.06;5031668;28;20530;-60
2022/04/08 00:27:07;;;;;;;2.42;0.60;;;12.00;76.00;;;8.17;90.16;94337.63;4994959;28;20164;-60
2022/04/08 00:29:32;;;;;;;2.28;0.60;;;12.00;76.10;;;8.20;90.04;94341.59;5019603;28;20033;-57
2022/04/08 00:31:58;;;;;;;0.98;0.60;;;12.00;76.00;;;8.16;90.08;94344.03;5032353;28;20083;-60
2022/04/08 00:34:30;;;;;;;0.60;0.50;;;12.00;76.00;;;8.17;90.09;94337.63;5031113;28;20067;-61
2022/04/08 00:37:09;;;;;;;2.65;0.65;;;12.00;75.90;;;8.14;90.28;94348.81;5014125;28;20036;-60
2022/04/08 00:39:35;;;;;;;1.60;0.60;;;12.10;76.20;;;8.14;90.52;94348.81;5026485;28;20029;-60
2022/04/08 00:42:01;;;;;;;2.03;0.70;;;12.00;76.00;;;8.13;90.67;94344.56;5032608;28;20087;-60
2022/04/08 00:44:26;;;;;;;1.67;0.70;;;12.00;76.00;;;8.07;89.84;94345.69;4994905;28;20146;-58
2022/04/08 00:46:58;;;;;;;0.40;0.40;;;12.00;75.80;;;7.91;88.90;94370.75;5022852;28;20614;-59
2022/04/08 00:49:32;;;;;;;0.85;0.50;;;12.00;75.40;;;7.63;88.38;94359.81;5032104;28;20056;-56
2022/04/08 00:52:03;;;;;;;1.17;0.30;;;12.00;74.90;;;7.50;88.67;94361.22;4994176;28;20089;-58
2022/04/08 00:54:36;;;;;;;0.77;0.50;;;11.80;74.50;;;7.46;88.89;94362.84;5013742;28;20026;-59
2022/04/08 00:57:08;;;;;;;;;;;11.80;74.50;;;7.28;88.68;94363.47;5007072;28;20034;-58
2022/04/08 00:59:34;;;;;;;1.85;0.40;;;11.60;74.10;;;7.23;88.94;94369.56;5011967;28;19909;-56
2022/04/08 01:02:02;;;;;;;2.42;0.40;;;11.50;74.00;;;7.14;88.57;94368.53;4974728;28;20034;-61
2022/04/08 01:04:37;;;;;;;1.05;0.40;;;11.50;74.00;;;7.07;88.75;94374.13;5013904;28;20044;-57
2022/04/08 01:07:06;;;;;;;1.98;0.50;;;11.40;74.00;;;6.93;88.91;94373.16;5014936;28;20059;-58
2022/04/08 01:09:35;;;;;;;2.70;0.70;;;11.30;74.00;;;6.76;88.66;94372.66;5028473;28;20041;-59
2022/04/08 01:12:02;;;;;;;2.10;0.70;;;11.20;73.90;;;6.70;88.60;94377.97;5028692;28;20033;-56
2022/04/08 01:14:28;;;;;;;0.75;0.55;;;11.10;73.90;;;6.72;88.63;94370.56;4996559;28;20052;-57
2022/04/08 01:16:53;;;;;;;0.95;0.60;;;11.00;74.00;;;6.63;88.46;94374.03;5031778;28;20373;-58
2022/04/08 01:19:22;;;;;;;1.58;0.60;;;10.90;74.10;;;6.58;88.63;94371.38;5014748;28;20025;-56
2022/04/08 01:21:55;;;;;;;2.83;0.60;;;10.80;74.10;;;6.54;88.51;94373.78;5013198;28;20021;-58
2022/04/08 01:24:29;;;;;;;1.95;0.60;;;10.80;74.20;;;6.55;88.71;94382.50;5032036;28;20030;-56
2022/04/08 01:26:56;;;;;;;3.25;0.75;;;10.80;74.40;;;6.55;88.51;94367.44;4994992;28;20031;-56
2022/04/08 01:29:24;;;;;;;5.68;0.93;;;10.70;74.40;;;6.52;88.55;94375.91;5027082;28;20036;-58
2022/04/08 01:31:50;;;;;;;3.08;0.98;;;10.60;74.40;;;6.51;88.42;94384.91;5032072;28;20021;-58
2022/04/08 01:34:15;;;;;;;3.22;0.80;;;10.60;74.50;;;6.49;88.61;94377.25;5024775;28;20148;-58
2022/04/08 01:36:44;;;;;;;4.13;1.00;;;10.60;74.60;;;6.51;87.97;94392.03;5030668;28;20040;-58
2022/04/08 01:39:13;;;;;;;5.88;0.88;;;10.50;74.50;;;6.51;88.07;94397.34;5014454;28;20500;-59
2022/04/08 01:41:38;;;;;;;1.38;0.65;;;10.60;74.60;;;6.47;87.16;94384.66;5030877;28;20026;-59
2022/04/08 01:44:05;;;;;;;1.83;0.88;;;10.50;74.40;;;6.41;86.35;94367.19;5011279;28;20076;-56
2022/04/08 01:46:30;;;;;;;3.42;0.70;;;10.50;74.30;;;6.39;86.45;94374.63;5007535;28;20018;-59
2022/04/08 01:48:56;;;;;;;3.40;0.77;;;10.40;74.10;;;6.39;86.70;94385.19;5007618;28;20507;-57
2022/04/08 01:51:27;;;;;;;5.43;1.15;;;10.40;74.10;;;6.36;86.12;94383.09;5031694;28;20022;-56
2022/04/08 01:53:59;;;;;;;2.55;0.65;;;10.40;74.10;;;6.38;87.01;94380.16;5014169;28;20400;-59
2022/04/08 01:59:17;;;;;;;3.45;0.80;;;10.30;74.20;;;6.26;87.66;94404.25;5019442;28;20433;-60
2022/04/08 02:01:43;;;;;;;2.10;0.47;;;10.30;74.30;;;6.20;87.85;94410.59;5035902;28;20041;-58
2022/04/08 02:04:11;;;;;;;2.92;0.65;;;10.20;74.40;;;6.17;87.87;94379.38;5011549;28;20495;-58
2022/04/08 02:06:44;;;;;;;2.97;0.82;;;10.20;74.50;;;6.17;88.14;94377.56;5002109;28;20120;-57
2022/04/08 02:09:19;;;;;;;4.22;1.00;;;10.20;74.60;;;6.17;88.47;94384.69;5018266;28;20033;-58
2022/04/08 02:12:00;;;;;;;3.30;0.90;;;10.20;74.60;;;6.16;88.68;94404.25;5033991;28;20034;-55
2022/04/08 02:14:26;;;;;;;2.30;0.98;;;10.20;74.80;;;6.15;88.30;94414.03;5035437;28;20042;-57
2022/04/08 02:16:55;;;;;;;7.80;1.08;;;10.10;74.70;;;6.13;87.89;94400.28;5017113;28;20021;-59
2022/04/08 02:19:32;;;;;;;4.10;1.40;;;10.10;74.80;;;6.17;88.15;94413.75;5054531;28;20029;-57
2022/04/08 02:21:59;;;;;;;6.82;1.52;;;10.10;74.80;;;6.18;87.71;94400.28;5047907;28;20092;-56
2022/04/08 02:24:38;;;;;;;7.22;1.50;;;10.10;74.80;;;6.18;87.62;94402.94;5035772;28;20083;-58
2022/04/08 02:27:12;;;;;;;4.05;1.20;;;10.20;74.90;;;6.21;87.95;94406.91;5017650;28;20029;-61
2022/04/08 02:29:39;;;;;;;5.53;1.25;;;10.10;74.90;;;6.12;87.48;94400.56;5012783;28;20030;-61
2022/04/08 02:32:10;;;;;;;8.27;1.27;;;10.10;74.90;;;6.10;87.87;94392.88;5032181;28;20048;-60
2022/04/08 02:34:38;;;;;;;8.30;1.30;;;10.10;74.90;;;6.08;88.14;94389.72;5016319;28;20026;-61
2022/04/08 02:37:07;;;;;;;6.07;1.27;;;10.10;74.90;;;6.07;88.38;94390.75;5035869;28;20095;-58
2022/04/08 02:39:33;;;;;;;9.02;1.40;;;10.10;74.80;;;6.07;88.51;94385.47;5016676;28;20060;-60
2022/04/08 02:42:02;;;;;;;6.57;1.10;;;10.10;74.80;;;5.99;88.59;94373.59;5033101;28;20033;-58
2022/04/08 02:44:31;;;;;;;6.18;1.40;;;10.10;74.80;;;5.99;88.60;94373.59;5017650;28;20120;-59
2022/04/08 02:46:58;;;;;;;8.98;1.40;;;10.10;74.70;;;5.96;88.75;94386.56;5034131;28;20500;-60
2022/04/08 02:49:35;;;;;;;7.25;1.50;;;10.00;74.70;;;5.95;88.73;94393.66;5035307;28;20511;-58
2022/04/08 02:52:07;;;;;;;5.78;1.35;;;10.00;74.80;;;5.96;88.92;94399.75;5033914;28;20049;-59
2022/04/08 02:54:36;;;;;;;5.75;1.48;;;10.00;74.80;;;5.95;89.23;94393.66;5034959;28;20515;-56
2022/04/08 02:57:01;;;;;;;6.20;1.30;;;10.00;74.80;;;5.95;89.29;94404.22;5017547;28;20057;-58
2022/04/08 02:59:33;;;;;;;5.00;1.38;;;10.00;74.80;;;5.93;89.39;94382.56;5020811;28;20022;-60
2022/04/08 03:01:59;;;;;;;6.22;1.77;;;10.00;74.90;;;5.95;89.22;94377.81;5034833;28;20033;-59
2022/04/08 03:04:25;;;;;;;9.05;1.88;;;10.00;74.80;;;5.94;89.03;94381.50;5034107;28;20425;-56
2022/04/08 03:06:55;;;;;;;8.93;1.83;;;10.00;74.80;;;5.93;89.05;94365.94;5017297;28;20116;-58
2022/04/08 03:09:24;;;;;;;8.80;1.70;;;10.00;74.90;;;5.91;89.35;94392.59;5016626;28;20120;-59
2022/04/08 03:11:59;;;;;;;7.53;1.77;;;10.00;74.90;;;5.94;89.56;94393.94;5028716;28;20112;-59
2022/04/08 03:14:25;;;;;;;9.48;1.90;;;10.00;74.90;;;5.91;89.70;94405.00;5054697;28;20029;-57
2022/04/08 03:16:51;;;;;;;7.00;1.70;;;10.00;74.90;;;5.85;89.78;94398.13;5023289;28;20026;-58
2022/04/08 03:19:23;;;;;;;7.20;1.92;;;9.90;74.90;;;5.88;90.07;94402.88;5016981;28;20028;-60
2022/04/08 03:21:58;;;;;;;12.10;1.83;;;10.00;75.10;;;5.89;89.88;94401.81;5034097;28;20025;-60
2022/04/08 03:24:33;;;;;;;7.57;1.67;;;10.00;75.00;;;5.87;90.13;94396.81;5017005;28;20029;-60
2022/04/08 03:27:01;;;;;;;11.10;2.10;;;10.00;75.10;;;5.86;89.72;94389.94;5016965;28;20516;-59
2022/04/08 03:29:33;;;;;;;9.13;2.17;;;10.00;75.10;;;5.87;89.74;94388.88;5033757;28;20037;-59
2022/04/08 03:31:59;;;;;;;6.30;1.90;;;10.00;75.20;;;5.91;89.72;94383.88;5016109;28;20538;-59
2022/04/08 03:34:27;;;;;;;7.78;1.90;;;9.90;75.20;;;5.89;89.83;94385.97;5032388;28;20025;-59
2022/04/08 03:37:04;;;;;;;8.23;1.50;;;9.90;76.00;;;5.92;89.90;94401.28;5016402;28;20030;-59
2022/04/08 03:39:30;;;;;;;9.02;1.80;;;9.90;75.20;;;5.96;89.87;94402.41;5016331;28;20029;-57
2022/04/08 03:42:14;;;;;;;7.63;1.80;;;9.90;75.30;;;5.93;89.82;94397.66;5033475;28;20040;-58
2022/04/08 03:44:43;;;;;;;7.57;1.60;;;10.00;75.30;;;5.94;89.86;94409.81;5016395;28;20472;-58
2022/04/08 03:47:12;;;;;;;9.00;2.20;;;9.90;76.00;;;5.92;90.03;94403.94;5032960;28;20091;-59
2022/04/08 03:49:38;;;;;;;6.68;1.73;;;10.00;75.30;;;5.93;90.06;94414.28;5033936;28;20026;-55
2022/04/08 03:52:05;;;;;;;4.65;1.40;;;10.00;75.30;;;5.95;89.75;94409.53;5032448;28;20500;-59
2022/04/08 03:54:31;;;;;;;7.22;1.60;;;10.00;75.30;;;5.98;89.74;94403.72;5003527;28;20053;-58
2022/04/08 03:56:59;;;;;;;7.47;1.67;;;10.00;75.30;;;5.97;89.33;94401.34;5033893;28;20072;-58
2022/04/08 03:59:25;;;;;;;5.43;1.60;;;10.00;75.30;;;5.96;89.45;94407.69;5030776;28;20029;-57
2022/04/08 04:01:58;;;;;;;7.13;1.42;;;9.90;75.30;;;5.96;89.19;94386.56;5010752;28;20072;-59
2022/04/08 04:04:29;;;;;;;8.00;1.38;;;9.90;75.30;;;5.96;89.17;94389.19;4996838;28;20029;-58
2022/04/08 04:06:55;;;;;;;6.45;1.65;;;9.90;75.30;;;5.98;89.05;94393.13;5025629;28;20026;-58
2022/04/08 04:09:27;;;;;;;10.00;1.70;;;9.90;75.30;;;6.00;88.91;94384.94;5013196;28;20026;-58
2022/04/08 04:11:53;;;;;;;15.77;2.40;;;9.90;75.30;;;6.01;89.06;94384.69;5026157;28;20037;-56
2022/04/08 04:14:18;;;;;;;3.80;1.60;;;9.90;75.30;;;5.99;89.19;94384.16;5033246;28;20030;-54
2022/04/08 04:16:44;;;;;;;7.22;1.63;;;9.90;75.40;;;5.99;88.79;94386.81;5032966;28;20052;-57
2022/04/08 04:19:10;;;;;;;6.45;1.80;;;9.90;75.20;;;6.00;88.94;94377.03;5033175;28;20099;-57
2022/04/08 04:21:36;;;;;;;4.75;1.88;;;9.90;75.20;;;6.00;89.07;94371.75;5030463;28;20060;-56
2022/04/08 04:24:05;;;;;;;8.32;2.00;;;9.90;75.20;;;6.00;88.89;94371.75;5014538;28;20040;-59
2022/04/08 04:26:30;;;;;;;9.13;2.20;;;9.90;75.20;;;5.98;88.94;94374.63;5015764;28;20029;-57
2022/04/08 04:28:59;;;;;;;5.18;1.80;;;10.00;75.10;;;5.99;89.15;94365.66;5012863;28;20029;-55
2022/04/08 04:31:25;;;;;;;7.63;2.15;;;9.90;75.10;;;5.97;89.30;94362.47;5025992;28;20472;-59
2022/04/08 04:33:50;;;;;;;9.10;2.90;;;9.90;75.00;;;6.00;89.38;94369.09;5014280;28;20167;-56
2022/04/08 04:36:16;;;;;;;8.60;2.45;;;9.90;75.00;;;6.00;89.30;94359.31;5033676;28;20025;-55
2022/04/08 04:38:45;;;;;;;11.98;2.70;;;10.00;75.10;;;6.00;89.44;94361.94;5032219;28;20442;-54
2022/04/08 04:41:15;;;;;;;6.38;2.45;;;10.00;75.10;;;5.98;89.55;94350.84;5026602;28;20021;-59
2022/04/08 04:43:41;;;;;;;7.05;1.83;;;10.00;75.10;;;6.00;89.55;94358.53;4998994;28;20072;-59
2022/04/08 04:46:07;;;;;;;7.45;2.22;;;10.00;75.20;;;6.01;89.61;94350.31;5030705;28;20392;-56
2022/04/08 04:48:33;;;;;;;10.82;2.60;;;10.00;75.10;;;6.07;89.55;94342.38;5032860;28;20025;-57
2022/04/08 04:50:59;;;;;;;9.15;2.58;;;10.00;75.10;;;6.07;89.14;94345.81;5032419;28;20029;-58
2022/04/08 04:53:31;;;;;;;5.95;2.47;;;10.00;75.10;;;6.08;89.55;94346.59;5022473;28;20045;-58
2022/04/08 04:55:57;;;;;;;8.27;2.20;;;10.10;75.20;;;6.05;89.71;94342.66;5032724;28;20021;-61
2022/04/08 04:58:30;;;;;;;7.93;2.15;;;10.10;75.10;;;6.10;89.86;94350.56;5007284;28;20058;-62
2022/04/08 05:01:02;;;;;;;8.60;1.95;;;10.10;75.10;;;6.12;89.89;94345.03;4996394;28;20034;-61
2022/04/08 05:03:28;;;;;;;5.47;1.57;;;10.10;75.10;;;6.17;89.77;94356.41;5014600;28;20044;-61
2022/04/08 05:05:56;;;;;;;7.10;1.83;;;10.20;75.20;;;6.21;89.72;94354.81;5013670;28;20021;-59
2022/04/08 05:08:22;;;;;;;12.05;1.60;;;10.20;75.20;;;6.23;89.65;94367.75;5032732;28;20034;-59
2022/04/08 05:10:54;;;;;;;5.43;2.00;;;10.20;75.20;;;6.26;89.82;94369.84;5025573;28;20041;-61
2022/04/08 05:13:20;;;;;;;6.60;1.80;;;10.30;75.20;;;6.29;90.01;94357.97;5014748;28;20021;-61
2022/04/08 05:15:49;;;;;;;4.53;1.05;;;10.30;75.20;;;6.27;89.72;94342.38;5031116;28;20044;-61
2022/04/08 05:18:15;;;;;;;2.35;0.80;;;10.30;75.30;;;6.34;88.62;94347.38;5014870;28;20481;-60
2022/04/08 05:20:40;;;;;;;3.50;1.13;;;10.30;75.20;;;6.41;88.69;94356.63;5014574;28;20427;-61
2022/04/08 05:23:06;;;;;;;2.50;0.90;;;10.30;75.40;;;6.38;88.75;94341.28;5013994;28;20040;-61
2022/04/08 05:25:32;;;;;;;2.10;0.68;;;10.30;75.50;;;6.45;88.67;94330.41;5032166;28;20033;-60
2022/04/08 05:28:01;;;;;;;3.58;0.88;;;10.40;75.60;;;6.45;88.32;94339.13;5027709;28;20033;-60
2022/04/08 05:30:27;;;;;;;1.17;0.70;;;10.40;75.50;;;6.49;88.20;94336.78;5023353;28;20037;-60
2022/04/08 05:32:54;;;;;;;1.05;0.57;;;10.40;75.50;;;6.52;88.32;94341.53;5011454;28;20029;-62
2022/04/08 05:35:20;;;;;;;1.50;0.60;;;10.40;75.50;;;6.46;88.29;94338.09;4873188;28;20472;-59
2022/04/08 05:37:48;;;;;;;0.65;0.50;;;10.50;75.60;;;6.50;88.17;94341.00;5005539;28;20061;-58
2022/04/08 05:40:21;;;;;;;3.13;0.50;;;10.50;75.40;;;6.51;88.38;94344.44;4980817;28;20029;-60
2022/04/08 05:42:48;;;;;;;3.03;0.60;;;10.50;75.30;;;6.46;88.32;94340.75;5029471;28;20038;-61
2022/04/08 05:45:21;;;;;;;2.80;0.80;;;10.50;75.30;;;6.46;87.87;94334.66;5023102;28;20201;-62
2022/04/08 05:47:50;;;;;;;1.35;0.60;;;10.50;75.10;;;6.46;87.50;94338.09;5004429;28;20025;-60
2022/04/08 05:50:20;;;;;;;2.40;0.47;;;10.50;75.00;;;6.40;86.66;94338.38;5039436;28;20033;-60
2022/04/08 05:52:47;;;;;;;1.23;0.70;;;10.50;75.50;;;6.45;87.23;94336.50;5019552;28;20095;-59
2022/04/08 05:55:13;;;;;;;1.85;0.57;;;10.50;74.70;;;6.48;87.86;94333.31;5019554;28;20014;-59
2022/04/08 05:57:40;;;;;;;1.45;0.80;;;10.50;74.70;;;6.45;87.60;94325.91;5012517;28;20025;-60
2022/04/08 06:00:13;;;;;;;4.97;0.90;;;10.50;74.80;;;6.43;87.71;94337.84;5001128;28;20061;-60
2022/04/08 06:02:47;;;;;;;3.42;0.90;;;10.50;74.70;;;6.47;87.92;94342.31;5001986;28;20053;-61
2022/04/08 06:05:20;;;;;;;2.42;0.60;;;10.50;74.70;;;6.45;87.72;94341.00;4972710;28;66440;-58
2022/04/08 06:07:55;;;;;;;;;;;10.50;74.60;;;6.39;87.36;94331.47;5012207;28;20062;-56
2022/04/08 06:10:26;;;;;;;4.22;1.05;;;10.50;74.50;;;6.48;87.80;94335.16;4994570;28;20357;-59
2022/04/08 06:12:55;;;;;;;4.70;0.90;;;10.50;74.40;;;6.44;87.54;94339.41;4994538;28;20158;-57
2022/04/08 06:15:21;;;;;;;3.35;0.95;;;10.60;74.40;;;6.46;87.94;94334.66;4978230;28;20026;-59
2022/04/08 06:17:47;;;;;;;3.00;0.82;;;10.60;74.40;;;6.49;87.72;94334.91;4992284;28;20451;-60
2022/04/08 06:20:16;;;;;;;6.07;0.80;;;10.70;74.40;;;6.56;88.35;94334.63;5011495;28;20485;-60
2022/04/08 06:22:42;;;;;;;1.58;0.85;;;10.70;74.30;;;6.55;87.95;94335.69;4976895;28;20038;-58
2022/04/08 06:25:14;;;;;;;1.55;0.80;;;10.80;74.30;;;6.57;87.98;94338.84;5011680;28;20026;-60
2022/04/08 06:27:40;;;;;;;2.40;0.82;;;10.80;74.20;;;6.64;88.21;94331.44;5009253;28;20386;-60
2022/04/08 06:30:11;;;;;;;4.85;0.98;;;10.90;74.10;;;6.58;88.17;94319.28;5006378;28;20092;-60
2022/04/08 06:32:45;;;;;;;2.60;0.77;;;10.90;74.00;;;6.63;88.02;94315.81;4994363;28;20041;-59
2022/04/08 06:35:14;;;;;;;3.03;1.00;;;11.00;74.00;;;6.65;87.82;94314.50;4977835;28;20029;-59
2022/04/08 06:37:40;;;;;;;6.35;3.03;;;11.00;73.90;;;6.73;87.86;94307.84;4994045;28;20026;-61
2022/04/08 06:40:09;;;;;;;6.97;1.25;;;11.10;73.90;;;6.76;88.04;94311.78;5007017;28;20033;-60
2022/04/08 06:42:38;;;;;;;4.55;1.30;;;11.10;73.80;;;6.84;88.44;94314.69;5011836;28;20356;-60
2022/04/08 06:45:08;;;;;;;1.92;1.10;;;11.20;73.80;;;6.89;87.78;94305.91;4992282;28;20448;-60
2022/04/08 06:47:48;;;;;;;2.72;0.95;;;11.30;73.80;;;6.98;88.22;94304.28;4969517;28;20536;-58
2022/04/08 06:50:26;;;;;;;1.77;0.90;;;11.40;73.70;;;7.03;88.38;94306.13;4995127;28;20030;-59
2022/04/08 06:52:55;;;;;;;1.08;0.93;;;11.50;73.50;;;7.04;87.85;94294.47;5025893;23;20514;-58
2022/04/08 06:55:25;;;;;;;1.95;1.00;;;11.60;73.30;;;7.07;87.60;94284.09;5051618;28;20025;-52
2022/04/08 06:57:51;;;;;;;2.00;1.10;;;11.80;73.00;;;7.17;87.65;94281.41;5050090;28;20395;-55
2022/04/08 07:00:30;;;;;;;4.93;1.20;;;11.90;72.80;;;7.24;87.96;94272.34;5049940;28;20021;-58
2022/04/08 07:02:59;;;;;;;2.30;1.23;;;12.00;72.70;;;7.39;87.95;94280.19;5005991;28;20160;-58
2022/04/08 07:05:34;;;;;;;2.75;1.00;;;12.20;72.60;;;7.38;85.91;94274.13;5028476;28;20108;-59
2022/04/08 07:08:03;;;;;;;2.38;0.73;;;12.30;72.40;;;7.31;86.51;94270.22;5032158;28;20061;-59
2022/04/08 07:10:29;;;;;;;2.60;1.10;;;12.40;71.80;;;7.47;86.51;94265.59;5029392;28;20029;-56
2022/04/08 07:12:55;;;;;;;1.75;1.08;;;12.50;71.60;;;7.56;87.04;94254.13;5026962;28;20025;-58
2022/04/08 07:15:30;;;;;;;4.10;1.67;;;12.70;71.30;;;7.72;85.78;94246.03;5016185;28;20025;-58
2022/04/08 07:17:59;;;;;;;4.18;1.38;;;12.90;70.90;;;7.87;86.02;94238.75;5032970;28;20029;-58
2022/04/08 07:20:27;;;;;;;2.17;1.17;;;13.20;70.90;;;7.97;86.21;94237.06;5016243;28;20021;-57
2022/04/08 07:23:01;;;;;;;3.17;1.25;;;13.30;70.40;;;8.16;86.56;94229.19;5005974;28;20029;-57
2022/04/08 07:25:28;;;;;;;1.75;1.02;;;13.40;70.40;;;8.20;85.67;94219.56;5017812;28;20411;-58
2022/04/08 07:28:00;;;;;;;2.33;1.02;;;13.50;70.00;;;8.26;85.24;94221.88;4998683;28;20037;-54
2022/04/08 07:30:28;;;;;;;3.38;0.90;;;13.50;69.90;;;8.20;84.66;94211.63;5034106;28;20391;-54
2022/04/08 07:32:56;;;;;;;2.63;0.90;;;13.60;69.70;;;8.26;84.80;94210.50;5034334;28;20026;-54
2022/04/08 07:35:30;;;;;;;2.30;1.33;;;13.60;69.60;;;8.37;84.93;94208.50;5027167;28;20499;-55
2022/04/08 07:37:57;;;;;;;1.98;0.90;;;13.60;69.60;;;8.30;84.78;94192.91;5017233;28;20423;-54
2022/04/08 07:40:28;;;;;;;1.98;0.90;;;13.70;69.30;;;8.35;84.26;94183.03;5018360;28;20034;-56
2022/04/08 07:42:54;;;;;;;0.98;0.88;;;13.70;69.20;;;8.33;85.08;94184.41;5034044;28;20033;-56
2022/04/08 07:45:27;;;;;;;4.05;2.13;;;13.80;69.20;;;8.31;84.59;94152.84;5033692;28;20033;-57
2022/04/08 07:47:59;;;;;;;2.28;0.98;;;13.80;69.10;;;8.60;84.76;94161.81;5039953;28;20060;-56
2022/04/08 07:50:27;;;;;;;1.25;0.90;;;14.00;69.20;;;8.66;84.12;94168.63;5017102;28;20518;-56
2022/04/08 07:52:53;;;;;;;1.00;0.80;;;14.10;68.80;;;8.85;84.07;94174.72;4993462;28;20051;-57
2022/04/08 07:55:20;;;;;;;1.10;0.80;;;14.40;68.60;;;8.89;83.36;94159.78;5030672;28;20097;-57
2022/04/08 07:57:51;;;;;;;1.48;1.30;;;14.60;68.40;;;9.11;83.50;94169.81;5014614;28;20030;-54
2022/04/08 08:00:20;;;;;;;3.05;1.02;;;14.70;68.10;;;9.10;82.42;94170.13;5015754;28;20105;-56
2022/04/08 08:02:50;;;;;;;2.78;0.85;;;14.80;67.80;;;9.07;81.59;94146.81;5033865;28;20030;-57
2022/04/08 08:05:22;;;;;;;1.25;0.85;;;14.90;67.50;;;9.28;84.17;94150.72;5009551;28;20438;-60
2022/04/08 08:07:57;;;;;;;3.20;1.10;;;15.10;67.20;;;9.60;83.71;94154.44;5028687;28;20408;-54
2022/04/08 08:10:28;;;;;;;3.08;0.90;;;15.40;67.20;;;9.68;82.14;94140.44;5001233;28;20033;-58
2022/04/08 08:13:02;;;;;;;0.95;0.88;;;15.70;66.90;;;9.63;80.83;94140.56;5012401;28;20038;-56
2022/04/08 08:15:33;;;;;;;1.63;0.82;;;15.90;66.00;;;9.75;80.91;94130.25;5002855;28;20022;-58
2022/04/08 08:17:59;;;;;;;2.42;0.90;;;16.00;65.60;;;9.81;82.38;94139.69;5030978;28;20455;-52
2022/04/08 08:20:26;;;;;;;2.65;0.70;;;15.90;65.60;;;9.77;82.24;94133.38;5015194;28;20056;-56
2022/04/08 08:22:52;;;;;;;3.50;1.40;;;15.80;65.50;;;9.92;82.34;94138.41;5014805;28;20025;-56
2022/04/08 08:25:19;;;;;;;2.97;1.20;;;15.70;65.80;;;9.89;80.97;94130.25;5026333;28;20504;-57
2022/04/08 08:27:51;;;;;;;3.72;1.30;;;15.60;65.90;;;9.97;81.58;94129.56;5003452;28;20387;-57
2022/04/08 08:30:17;;;;;;;2.10;1.02;;;15.60;65.90;;;10.02;81.48;94120.69;5007798;28;20048;-58
2022/04/08 08:32:46;;;;;;;2.90;1.00;;;15.70;66.00;;;10.21;81.16;94118.69;4996986;28;20022;-55
2022/04/08 08:35:14;;;;;;;2.35;0.98;;;15.90;65.90;;;10.36;81.57;94133.59;5005361;28;20083;-58
2022/04/08 08:37:40;;;;;;;1.98;1.30;;;16.10;65.70;;;10.36;79.77;94126.41;5046695;28;20082;-53
2022/04/08 08:40:08;;;;;;;2.72;1.25;;;16.20;65.50;;;10.52;79.16;94124.19;5018678;28;20040;-55
2022/04/08 08:42:39;;;;;;;2.25;0.93;;;16.30;65.00;;;10.71;78.94;94116.06;5022350;28;20455;-54
2022/04/08 08:45:12;;;;;;;1.13;0.80;;;16.50;64.80;;;10.86;78.67;94112.28;4999189;28;20029;-58
2022/04/08 08:48:02;;;;;;;1.10;1.00;;;16.70;64.60;;;11.03;77.76;94116.94;5031732;28;20387;-53
2022/04/08 08:50:30;;;;;;;2.65;0.82;;;17.00;64.40;;;11.15;76.35;94103.09;5014453;28;20036;-57
2022/04/08 08:52:59;;;;;;;2.85;0.75;;;17.30;63.90;;;11.33;76.01;94107.44;5030679;28;20484;-56
2022/04/08 08:55:25;;;;;;;1.90;0.80;;;17.60;63.10;;;11.58;77.92;94111.34;5031659;28;20057;-58
2022/04/08 08:57:57;;;;;;;2.70;0.90;;;17.90;62.70;;;11.80;75.25;94095.28;5013637;28;20025;-54
2022/04/08 09:00:23;;;;;;;1.67;0.88;;;18.40;62.00;;;11.86;74.01;94111.97;5021526;28;20032;-55
2022/04/08 09:02:50;;;;;;;1.02;0.93;;;18.60;61.10;;;12.10;75.11;94113.50;5017954;28;20065;-54
2022/04/08 09:05:26;;;;;;;0.95;0.90;;;18.90;60.00;;;12.30;72.75;94093.44;5033282;28;20387;-58
2022/04/08 09:08:18;;;;;;;1.02;0.93;;;19.10;59.60;;;12.54;73.55;94104.47;4991852;28;20120;-58
2022/04/08 09:10:48;;;;;;;1.52;0.82;;;19.30;59.50;;;12.45;71.75;94090.31;5015057;28;20046;-57
2022/04/08 09:13:28;;;;;;;1.77;0.80;;;19.30;58.60;;;12.46;70.78;94068.63;5005469;28;20029;-56
2022/04/08 09:16:03;;;;;;;1.00;0.70;;;19.30;58.50;;;12.19;72.01;94075.03;5022145;28;20032;-55
2022/04/08 09:18:34;;;;;;;1.70;0.80;;;19.20;57.90;;;12.33;72.53;94092.81;5020244;28;20090;-53
2022/04/08 09:21:09;;;;;;;2.22;0.73;;;19.20;57.90;;;12.47;71.75;94083.56;5011618;28;20036;-56
2022/04/08 09:23:35;;;;;;;1.85;0.90;;;19.20;57.90;;;12.43;72.72;94085.28;5016664;28;20034;-55
2022/04/08 09:26:05;;;;;;;1.52;0.63;;;19.10;57.50;;;12.29;72.42;94075.84;4998414;28;20025;-56
2022/04/08 09:28:37;;;;;;;0.70;0.70;;;18.90;57.80;;;12.14;74.37;94083.19;5024791;28;20040;-57
2022/04/08 09:31:05;;;;;;;2.53;0.97;;;18.60;57.90;;;12.08;73.51;94081.75;5023585;28;20107;-55
2022/04/08 09:33:32;;;;;;;1.17;1.00;;;18.40;58.10;;;12.11;74.78;94086.47;5002851;28;20037;-54
2022/04/08 09:35:59;;;;;;;1.88;0.70;;;18.20;58.50;;;12.01;75.94;94084.88;4986026;28;20022;-56
2022/04/08 09:38:30;;;;;;;1.15;0.70;;;18.20;58.80;;;11.99;74.33;94084.38;5007134;28;20048;-56
2022/04/08 09:41:07;;;;;;;0.63;0.60;;;18.10;58.70;;;11.92;73.35;94075.28;5022229;28;20033;-53
2022/04/08 09:43:38;;;;;;;0.60;0.60;;;18.10;58.60;;;11.89;71.17;94078.56;5032124;28;20032;-54
2022/04/08 09:46:22;;;;;;;0.80;0.60;;;18.00;58.60;;;11.74;72.94;94082.38;5013206;28;20099;-56
2022/04/08 09:48:48;;;;;;;0.55;0.47;;;17.90;58.30;;;11.66;71.76;94091.94;5018916;28;20116;-55
2022/04/08 09:51:23;;;;;;;11.50;4.88;;;17.70;58.20;;;11.51;73.73;94092.34;4990403;28;20113;-54
2022/04/08 09:53:59;;;;;;;3.00;1.48;;;17.50;58.10;;;11.62;74.73;94082.19;4999107;28;20451;-54
2022/04/08 09:56:29;;;;;;;0.65;0.60;;;17.30;58.80;;;11.58;74.15;94090.00;5007428;28;20041;-55
2022/04/08 09:59:16;;;;;;;1.30;0.80;;;17.10;59.20;;;11.28;74.75;94071.03;4989519;28;20497;-55
2022/04/08 10:01:44;;;;;;;3.50;0.73;;;16.90;59.40;;;11.32;76.33;94093.31;5027512;28;20021;-57
2022/04/08 10:04:13;;;;;;;1.10;0.63;;;16.70;59.80;;;11.23;75.61;94084.50;5013930;28;20109;-56
2022/04/08 10:06:45;;;;;;;0.95;0.77;;;16.50;60.10;;;11.23;75.79;94068.50;5030831;28;20036;-55
2022/04/08 10:09:13;;;;;;;1.90;0.80;;;16.60;60.30;;;11.32;76.57;94066.66;5031536;28;20025;-59
2022/04/08 10:12:03;;;;;;;0.95;0.68;;;16.70;60.50;;;11.37;77.17;94057.75;5012562;28;20171;-56
2022/04/08 10:15:26;;;;;;;2.40;0.60;;;16.90;60.40;;;11.55;74.43;94046.06;5031331;28;20040;-58
2022/04/08 10:18:00;;;;;;;0.73;0.60;;;17.10;60.20;;;11.74;73.89;94034.38;5030706;28;20039;-58
2022/04/08 10:20:28;;;;;;;0.90;0.68;;;17.50;59.70;;;11.71;74.20;94016.31;5035052;28;20022;-57
2022/04/08 10:23:13;;;;;;;1.02;0.82;;;17.70;59.20;;;11.81;73.07;94026.69;5017427;28;20443;-58
2022/04/08 10:25:43;;;;;;;0.35;0.35;;;17.80;58.70;;;11.83;70.99;94013.84;5001955;28;20044;-53
2022/04/08 10:28:11;;;;;;;0.65;0.65;;;17.80;58.30;;;11.87;71.50;94006.81;5013752;28;20115;-56
2022/04/08 10:30:52;;;;;;;0.52;0.52;;;17.70;58.20;;;11.98;72.24;93994.00;5016444;28;20030;-57
2022/04/08 10:33:29;;;;;;;1.23;1.13;;;18.00;57.60;;;12.33;70.08;93984.13;5017098;28;20025;-57
2022/04/08 10:36:00;;;;;;;0.50;0.50;;;18.40;57.40;;;12.60;69.26;93977.69;4999149;28;20052;-58
2022/04/08 10:38:36;;;;;;;0.77;0.77;;;18.70;56.90;;;12.90;69.24;93983.13;5017111;28;20519;-57
2022/04/08 10:41:11;;;;;;;0.82;0.70;;;19.00;56.50;;;13.20;68.41;93974.09;5021463;28;20110;-58